createdAt,value
2022-11-12T00:01:27.973Z,99771.09
2022-11-12T00:04:12.958Z,99770.16
2022-11-12T00:06:57.785Z,99766.53
2022-11-12T00:09:42.562Z,99761.69
2022-11-12T00:12:27.699Z,99767.22
2022-11-12T00:15:12.819Z,99765.97
2022-11-12T00:17:57.803Z,99766.13
2022-11-12T00:20:42.871Z,99750.19
2022-11-12T00:23:28.208Z,99771.69
2022-11-12T00:26:13.222Z,99772.78
2022-11-12T00:28:58.178Z,99773.75
2022-11-12T00:31:43.048Z,99776.09
2022-11-12T00:34:28.105Z,99777.38
2022-11-12T00:37:13.484Z,99786.13
2022-11-12T00:39:58.371Z,99788.19
2022-11-12T00:42:43.310Z,99785.53
2022-11-12T00:45:28.202Z,99785.25
2022-11-12T00:48:13.069Z,99781.09
2022-11-12T00:51:03.680Z,99781.94
2022-11-12T00:53:49.359Z,99781.09
2022-11-12T00:56:35.655Z,99774.84
2022-11-12T00:59:21.149Z,99773.03
2022-11-12T01:02:06.036Z,99788.41
2022-11-12T01:04:51.063Z,99782.72
2022-11-12T01:07:36.334Z,99801.75
2022-11-12T01:10:21.207Z,99799.41
2022-11-12T01:13:06.093Z,99801.09
2022-11-12T01:15:51.060Z,99800.34
2022-11-12T01:18:36.232Z,99806.84
2022-11-12T01:21:22.941Z,99798.38
2022-11-12T01:24:09.059Z,99787.84
2022-11-12T01:26:53.997Z,99791.59
2022-11-12T01:29:38.898Z,99786.75
2022-11-12T01:32:23.932Z,99775.38
2022-11-12T01:35:09.081Z,99774.94
2022-11-12T01:37:54.372Z,99778.41
2022-11-12T01:40:39.300Z,99769.72
2022-11-12T01:43:24.243Z,99762.78
2022-11-12T01:46:27.643Z,99764.81
2022-11-12T01:49:19.366Z,99747.91
2022-11-12T01:52:15.426Z,99745.72
2022-11-12T01:55:09.797Z,99763.59
2022-11-12T01:58:04.213Z,99754.44
2022-11-12T02:00:50.527Z,99759.97
2022-11-12T02:03:35.554Z,99764.13
2022-11-12T02:06:09.212Z,99754.56
2022-11-12T02:08:54.102Z,99747.47
2022-11-12T02:11:39.346Z,99750.69
2022-11-12T02:14:24.691Z,99758.84
2022-11-12T02:17:09.854Z,99761.34
2022-11-12T02:19:58.974Z,99760.53
2022-11-12T02:22:44.658Z,99750.44
2022-11-12T02:25:29.777Z,99759.56
2022-11-12T02:28:16.502Z,99761.25
2022-11-12T02:31:01.625Z,99752.50
2022-11-12T02:33:46.557Z,99756.13
2022-11-12T02:36:31.686Z,99756.50
2022-11-12T02:39:16.859Z,99756.31
2022-11-12T02:42:02.272Z,99754.53
2022-11-12T02:44:47.641Z,99746.19
2022-11-12T02:47:32.895Z,99759.31
2022-11-12T02:50:18.502Z,99744.75
2022-11-12T02:53:03.617Z,99746.84
2022-11-12T02:55:48.581Z,99745.72
2022-11-12T02:58:33.424Z,99745.13
2022-11-12T03:01:18.557Z,99743.28
2022-11-12T03:04:03.774Z,99741.22
2022-11-12T03:06:48.948Z,99744.56
2022-11-12T03:09:34.401Z,99738.97
2022-11-12T03:12:19.228Z,99740.41
2022-11-12T03:15:04.542Z,99735.00
2022-11-12T03:17:49.473Z,99739.03
2022-11-12T03:20:34.928Z,99731.13
2022-11-12T03:23:20.474Z,99729.34
2022-11-12T03:26:05.452Z,99734.63
2022-11-12T03:28:51.632Z,99728.13
2022-11-12T03:31:36.601Z,99729.59
2022-11-12T03:34:21.913Z,99728.50
2022-11-12T03:37:09.482Z,99734.47
2022-11-12T03:39:54.656Z,99726.69
2022-11-12T03:42:47.996Z,99737.44
2022-11-12T03:45:33.195Z,99728.94
2022-11-12T03:48:18.034Z,99720.16
2022-11-12T03:51:03.246Z,99731.00
2022-11-12T03:53:48.479Z,99733.50
2022-11-12T03:56:33.356Z,99733.53
2022-11-12T03:59:18.408Z,99723.97
2022-11-12T04:02:03.556Z,99719.59
2022-11-12T04:05:07.397Z,99711.97
2022-11-12T04:08:31.115Z,99713.91
2022-11-12T04:11:17.255Z,99717.66
2022-11-12T04:14:02.371Z,99700.75
2022-11-12T04:17:06.212Z,99707.81
2022-11-12T04:20:14.390Z,99708.56
2022-11-12T04:22:59.613Z,99702.56
2022-11-12T04:26:03.485Z,99710.63
2022-11-12T04:29:07.275Z,99702.81
2022-11-12T04:31:52.433Z,99701.19
2022-11-12T04:34:37.275Z,99716.09
2022-11-12T04:37:23.883Z,99711.50
2022-11-12T04:40:30.089Z,99713.25
2022-11-12T04:43:36.168Z,99707.41
2022-11-12T04:46:21.364Z,99698.53
2022-11-12T04:49:06.360Z,99724.00
2022-11-12T04:52:06.340Z,99717.47
2022-11-12T04:54:52.109Z,99728.78
2022-11-12T04:57:38.242Z,99726.72
2022-11-12T05:00:23.312Z,99732.72
2022-11-12T05:03:08.667Z,99733.03
2022-11-12T05:05:53.436Z,99718.72
2022-11-12T05:08:38.324Z,99708.97
2022-11-12T05:11:23.300Z,99704.53
2022-11-12T05:14:08.499Z,99703.44
2022-11-12T05:16:53.376Z,99716.66
2022-11-12T05:19:38.209Z,99710.88
2022-11-12T05:22:42.770Z,99711.03
2022-11-12T05:25:28.499Z,99707.19
2022-11-12T05:28:13.369Z,99712.81
2022-11-12T05:30:58.329Z,99705.44
2022-11-12T05:33:43.139Z,99716.88
2022-11-12T05:36:28.178Z,99713.25
2022-11-12T05:39:12.974Z,99708.00
2022-11-12T05:42:12.413Z,99702.72
2022-11-12T05:44:57.677Z,99710.59
2022-11-12T05:47:42.508Z,99711.03
2022-11-12T05:50:34.787Z,99712.88
2022-11-12T05:53:25.417Z,99666.59
2022-11-12T05:56:11.537Z,99721.31
2022-11-12T05:58:56.945Z,99725.50
2022-11-12T06:01:44.028Z,99733.03
2022-11-12T06:04:29.202Z,99730.56
2022-11-12T06:07:14.268Z,99743.16
2022-11-12T06:09:59.210Z,99738.63
2022-11-12T06:12:44.074Z,99752.47
2022-11-12T06:15:29.006Z,99740.69
2022-11-12T06:18:14.096Z,99742.19
2022-11-12T06:21:19.600Z,99739.69
2022-11-12T06:24:05.252Z,99739.97
2022-11-12T06:26:50.356Z,99737.19
2022-11-12T06:29:35.402Z,99746.34
2022-11-12T06:32:20.269Z,99727.50
2022-11-12T06:35:05.557Z,99743.59
2022-11-12T06:37:50.585Z,99741.13
2022-11-12T06:40:35.783Z,99729.75
2022-11-12T06:43:20.947Z,99743.50
2022-11-12T06:46:10.779Z,99739.91
2022-11-12T06:48:55.714Z,99743.94
2022-11-12T06:51:40.701Z,99739.63
2022-11-12T06:54:25.516Z,99737.66
2022-11-12T06:57:10.582Z,99721.44
2022-11-12T06:59:55.536Z,99734.50
2022-11-12T07:02:40.498Z,99743.38
2022-11-12T07:05:25.404Z,99751.13
2022-11-12T07:08:11.370Z,99749.16
2022-11-12T07:10:57.490Z,99743.91
2022-11-12T07:13:44.484Z,99741.25
2022-11-12T07:16:29.347Z,99744.16
2022-11-12T07:19:14.271Z,99748.88
2022-11-12T07:21:59.275Z,99754.16
2022-11-12T07:24:44.377Z,99754.41
2022-11-12T07:27:30.720Z,99752.03
2022-11-12T07:30:16.252Z,99738.84
2022-11-12T07:33:01.298Z,99747.75
2022-11-12T07:35:46.155Z,99748.56
2022-11-12T07:38:34.137Z,99745.53
2022-11-12T07:41:24.165Z,99745.50
2022-11-12T07:44:09.553Z,99742.19
2022-11-12T07:46:54.814Z,99739.94
2022-11-12T07:49:39.601Z,99763.00
2022-11-12T07:52:24.526Z,99753.28
2022-11-12T07:55:09.398Z,99759.75
2022-11-12T07:57:58.426Z,99749.44
2022-11-12T08:00:43.326Z,99755.38
2022-11-12T08:03:28.139Z,99761.44
2022-11-12T08:06:13.028Z,99769.22
2022-11-12T08:09:00.704Z,99766.00
2022-11-12T08:11:45.820Z,99769.56
2022-11-12T08:14:30.768Z,99777.56
2022-11-12T08:17:15.800Z,99769.00
2022-11-12T08:20:00.854Z,99772.44
2022-11-12T08:22:49.283Z,99769.16
2022-11-12T08:25:34.683Z,99780.56
2022-11-12T08:28:19.862Z,99781.41
2022-11-12T08:31:11.273Z,99777.44
2022-11-12T08:33:56.189Z,99779.50
2022-11-12T08:36:41.523Z,99776.44
2022-11-12T08:39:26.648Z,99781.59
2022-11-12T08:42:11.685Z,99782.78
2022-11-12T08:44:56.561Z,99775.50
2022-11-12T08:47:41.490Z,99780.66
2022-11-12T08:50:27.550Z,99778.56
2022-11-12T08:53:13.673Z,99781.94
2022-11-12T08:55:59.622Z,99778.38
2022-11-12T08:58:44.882Z,99769.53
2022-11-12T09:01:29.755Z,99767.63
2022-11-12T09:04:14.779Z,99760.44
2022-11-12T09:07:00.002Z,99757.41
2022-11-12T09:09:44.824Z,99769.03
2022-11-12T09:12:29.826Z,99770.56
2022-11-12T09:18:21.228Z,99770.78
2022-11-12T09:21:09.943Z,99772.66
2022-11-12T09:23:55.556Z,99776.91
2022-11-12T09:26:40.532Z,99777.66
2022-11-12T09:29:25.407Z,99779.31
2022-11-12T09:32:10.363Z,99768.41
2022-11-12T09:34:55.527Z,99764.47
2022-11-12T09:37:40.780Z,99763.03
2022-11-12T09:40:52.154Z,99766.56
2022-11-12T09:43:46.444Z,99767.78
2022-11-12T09:46:38.092Z,99762.84
2022-11-12T09:49:28.213Z,99763.97
2022-11-12T09:52:21.793Z,99753.41
2022-11-12T09:55:28.429Z,99759.41
2022-11-12T09:58:15.655Z,99762.44
2022-11-12T10:01:15.027Z,99772.72
2022-11-12T10:04:35.995Z,99779.88
2022-11-12T10:07:28.181Z,99764.19
2022-11-12T10:10:31.386Z,99762.41
2022-11-12T10:13:31.747Z,99752.34
2022-11-12T10:16:45.181Z,99759.00
2022-11-12T10:19:42.373Z,99755.41
2022-11-12T10:23:01.524Z,99760.22
2022-11-12T10:25:50.398Z,99757.41
2022-11-12T10:29:10.972Z,99740.03
2022-11-12T10:31:55.875Z,99749.16
2022-11-12T10:34:40.811Z,99751.84
2022-11-12T10:37:38.142Z,99735.63
2022-11-12T10:40:36.320Z,99740.13
2022-11-12T10:43:23.973Z,99728.38
2022-11-12T10:46:21.333Z,99732.38
2022-11-12T10:49:15.845Z,99720.78
2022-11-12T10:52:00.785Z,99721.44
2022-11-12T10:54:49.656Z,99722.28
2022-11-12T10:57:37.658Z,99721.16
2022-11-12T11:00:23.184Z,99708.53
2022-11-12T11:03:22.327Z,99706.38
2022-11-12T11:06:21.823Z,99709.69
2022-11-12T11:09:13.200Z,99705.06
2022-11-12T11:11:58.480Z,99703.38
2022-11-12T11:14:44.468Z,99703.22
2022-11-12T11:17:29.485Z,99693.59
2022-11-12T11:20:50.108Z,99695.75
2022-11-12T11:23:50.671Z,99689.97
2022-11-12T11:26:41.497Z,99691.44
2022-11-12T11:29:37.194Z,99688.59
2022-11-12T11:32:37.684Z,99692.59
2022-11-12T11:35:53.837Z,99684.56
2022-11-12T11:38:41.948Z,99679.22
2022-11-12T11:41:41.162Z,99680.59
2022-11-12T11:44:32.505Z,99672.56
2022-11-12T11:47:59.824Z,99678.19
2022-11-12T11:51:08.090Z,99674.16
2022-11-12T11:53:58.984Z,99667.47
2022-11-12T11:56:45.193Z,99664.91
2022-11-12T11:59:56.661Z,99656.41
2022-11-12T12:03:08.614Z,99666.81
2022-11-12T12:06:02.834Z,99656.88
2022-11-12T12:09:04.891Z,99656.78
2022-11-12T12:12:11.338Z,99651.13
2022-11-12T12:15:11.477Z,99656.09
2022-11-12T12:18:20.833Z,99647.03
2022-11-12T12:21:20.504Z,99630.88
2022-11-12T12:24:47.530Z,99645.47
2022-11-12T12:27:37.813Z,99645.78
2022-11-12T12:30:24.982Z,99648.00
2022-11-12T12:33:22.309Z,99641.91
2022-11-12T12:36:21.281Z,99639.94
2022-11-12T12:39:09.239Z,99633.38
2022-11-12T12:42:05.354Z,99635.59
2022-11-12T12:45:05.247Z,99630.72
2022-11-12T12:47:52.360Z,99629.69
2022-11-12T12:50:41.664Z,99628.31
2022-11-12T12:53:29.752Z,99623.59
2022-11-12T12:56:14.942Z,99611.94
2022-11-12T12:59:03.597Z,99625.25
2022-11-12T13:02:22.510Z,99614.16
2022-11-12T13:05:24.668Z,99619.88
2022-11-12T13:08:13.235Z,99615.72
2022-11-12T13:10:59.590Z,99607.06
2022-11-12T13:13:44.547Z,99605.53
2022-11-12T13:16:49.363Z,99574.72
2022-11-12T13:20:10.214Z,99598.78
2022-11-12T13:22:55.223Z,99598.13
2022-11-12T13:25:40.433Z,99585.75
2022-11-12T13:28:25.943Z,99583.53
2022-11-12T13:31:28.017Z,99586.47
2022-11-12T13:34:24.824Z,99574.44
2022-11-12T13:37:19.805Z,99573.25
2022-11-12T13:40:11.711Z,99574.44
2022-11-12T13:43:15.191Z,99577.75
2022-11-12T13:46:12.267Z,99575.09
2022-11-12T13:49:15.104Z,99583.44
2022-11-12T13:52:00.713Z,99581.59
2022-11-12T13:54:45.896Z,99580.75
2022-11-12T13:57:32.479Z,99573.22
2022-11-12T14:00:30.048Z,99571.53
2022-11-12T14:03:18.230Z,99547.78
2022-11-12T14:06:14.013Z,99577.06
2022-11-12T14:09:05.451Z,99576.69
2022-11-12T14:12:15.426Z,99576.88
2022-11-12T14:15:08.279Z,99570.44
2022-11-12T14:18:23.457Z,99571.91
2022-11-12T14:21:26.959Z,99573.34
2022-11-12T14:24:13.362Z,99568.25
2022-11-12T14:26:58.493Z,99568.84
2022-11-12T14:29:43.944Z,99570.50
2022-11-12T14:32:35.837Z,99568.03
2022-11-12T14:35:25.970Z,99565.53
2022-11-12T14:38:28.422Z,99563.31
2022-11-12T14:41:24.194Z,99565.78
2022-11-12T14:44:17.785Z,99559.59
2022-11-12T14:47:03.812Z,99557.50
2022-11-12T14:49:49.983Z,99550.75
2022-11-12T14:52:40.657Z,99551.75
2022-11-12T14:55:33.261Z,99545.75
2022-11-12T14:58:22.496Z,99541.13
2022-11-12T15:01:59.626Z,99543.28
2022-11-12T15:04:36.877Z,99533.59
2022-11-12T15:08:06.346Z,99530.22
2022-11-12T15:10:51.310Z,99531.88
2022-11-12T15:13:41.348Z,99531.25
2022-11-12T15:16:29.382Z,99521.44
2022-11-12T15:19:15.619Z,99526.94
2022-11-12T15:22:02.770Z,99513.69
2022-11-12T15:24:49.518Z,99514.81
2022-11-12T15:27:37.264Z,99516.31
2022-11-12T15:30:29.014Z,99517.59
2022-11-12T15:33:13.902Z,99519.63
2022-11-12T15:36:00.871Z,99521.53
2022-11-12T15:38:53.800Z,99529.81
2022-11-12T15:41:39.668Z,99529.53
2022-11-12T15:44:25.329Z,99522.22
2022-11-12T15:47:20.841Z,99519.09
2022-11-12T15:50:19.056Z,99517.41
2022-11-12T15:53:04.023Z,99513.53
2022-11-12T15:55:51.514Z,99511.41
2022-11-12T15:58:37.582Z,99505.94
2022-11-12T16:01:22.946Z,99504.81
2022-11-12T16:04:08.101Z,99504.16
2022-11-12T16:06:53.375Z,99509.28
2022-11-12T16:09:38.988Z,99501.38
2022-11-12T16:12:24.158Z,99494.72
2022-11-12T16:15:18.202Z,99501.03
2022-11-12T16:18:03.252Z,99495.75
2022-11-12T16:20:49.799Z,99492.09
2022-11-12T16:23:34.612Z,99495.75
2022-11-12T16:26:25.656Z,99474.88
2022-11-12T16:29:13.966Z,99500.88
2022-11-12T16:31:59.139Z,99489.47
2022-11-12T16:34:44.009Z,99494.25
2022-11-12T16:37:28.741Z,99486.81
2022-11-12T16:40:20.102Z,99483.47
2022-11-12T16:43:05.082Z,99482.50
2022-11-12T16:45:50.124Z,99487.63
2022-11-12T16:48:36.193Z,99483.34
2022-11-12T16:51:22.727Z,99494.59
2022-11-12T16:54:07.997Z,99486.03
2022-11-12T16:56:52.956Z,99476.97
2022-11-12T16:59:37.823Z,99469.88
2022-11-12T17:02:23.098Z,99473.47
2022-11-12T17:05:13.944Z,99479.09
2022-11-12T17:07:58.872Z,99474.81
2022-11-12T17:10:44.051Z,99477.63
2022-11-12T17:13:29.551Z,99477.09
2022-11-12T17:16:15.158Z,99477.16
2022-11-12T17:19:02.060Z,99480.03
2022-11-12T17:21:47.402Z,99477.09
2022-11-12T17:24:32.318Z,99474.47
2022-11-12T17:27:17.484Z,99488.38
2022-11-12T17:30:04.024Z,99487.06
2022-11-12T17:32:49.165Z,99479.97
2022-11-12T17:35:34.393Z,99487.25
2022-11-12T17:38:19.483Z,99487.44
2022-11-12T17:41:04.903Z,99480.16
2022-11-12T17:43:55.207Z,99481.47
2022-11-12T17:46:40.168Z,99481.19
2022-11-12T17:49:26.798Z,99479.84
2022-11-12T17:52:11.711Z,99476.22
2022-11-12T17:54:56.673Z,99483.69
2022-11-12T17:57:44.739Z,99480.88
2022-11-12T18:00:29.966Z,99479.56
2022-11-12T18:03:15.154Z,99478.53
2022-11-12T18:06:01.249Z,99477.41
2022-11-12T18:08:47.524Z,99477.19
2022-11-12T18:11:42.907Z,99464.44
2022-11-12T18:14:28.215Z,99470.19
2022-11-12T18:17:14.457Z,99468.03
2022-11-12T18:19:59.731Z,99469.53
2022-11-12T18:22:45.141Z,99466.72
2022-11-12T18:25:30.513Z,99460.78
2022-11-12T18:28:15.570Z,99459.25
2022-11-12T18:31:06.036Z,99477.75
2022-11-12T18:33:51.566Z,99470.44
2022-11-12T18:36:36.830Z,99465.81
2022-11-12T18:39:21.641Z,99466.75
2022-11-12T18:42:07.750Z,99465.47
2022-11-12T18:44:53.101Z,99461.84
2022-11-12T18:47:38.765Z,99460.16
2022-11-12T18:50:23.798Z,99463.31
2022-11-12T18:53:08.920Z,99463.09
2022-11-12T18:55:55.299Z,99452.34
2022-11-12T18:58:40.711Z,99456.19
2022-11-12T19:01:25.863Z,99443.09
2022-11-12T19:04:11.548Z,99439.31
2022-11-12T19:06:56.787Z,99431.84
2022-11-12T19:09:41.934Z,99430.22
2022-11-12T19:12:26.844Z,99439.63
2022-11-12T19:15:11.862Z,99418.56
2022-11-12T19:17:57.085Z,99434.63
2022-11-12T19:20:42.091Z,99429.66
2022-11-12T19:23:27.740Z,99433.19
2022-11-12T19:26:15.450Z,99430.38
2022-11-12T19:29:01.449Z,99430.69
2022-11-12T19:31:46.376Z,99429.34
2022-11-12T19:34:31.304Z,99434.50
2022-11-12T19:37:33.180Z,99435.84
2022-11-12T19:40:18.821Z,99432.66
2022-11-12T19:43:04.181Z,99429.88
2022-11-12T19:45:49.615Z,99437.19
2022-11-12T19:48:34.742Z,99426.91
2022-11-12T19:51:19.950Z,99423.25
2022-11-12T19:54:04.842Z,99426.75
2022-11-12T19:56:50.358Z,99430.56
2022-11-12T19:59:35.382Z,99429.41
2022-11-12T20:02:20.303Z,99432.72
2022-11-12T20:05:05.912Z,99435.69
2022-11-12T20:07:50.870Z,99418.84
2022-11-12T20:10:36.347Z,99422.78
2022-11-12T20:13:21.437Z,99412.84
2022-11-12T20:16:12.954Z,99413.31
2022-11-12T20:18:58.020Z,99405.22
2022-11-12T20:21:42.977Z,99394.56
2022-11-12T20:24:28.016Z,99396.72
2022-11-12T20:27:13.321Z,99396.75
2022-11-12T20:29:58.400Z,99394.25
2022-11-12T20:32:43.379Z,99397.69
2022-11-12T20:35:28.635Z,99397.56
2022-11-12T20:38:13.627Z,99398.94
2022-11-12T20:41:00.115Z,99395.16
2022-11-12T20:43:45.344Z,99390.75
2022-11-12T20:46:30.330Z,99393.63
2022-11-12T20:49:15.710Z,99382.53
2022-11-12T20:52:01.010Z,99391.59
2022-11-12T20:54:46.304Z,99398.59
2022-11-12T20:57:31.623Z,99388.97
2022-11-12T21:00:22.841Z,99392.59
2022-11-12T21:03:08.973Z,99383.88
2022-11-12T21:06:02.429Z,99393.59
2022-11-12T21:08:47.706Z,99387.44
2022-11-12T21:11:32.800Z,99376.50
2022-11-12T21:14:18.013Z,99379.16
2022-11-12T21:17:03.252Z,99368.09
2022-11-12T21:19:48.711Z,99374.38
2022-11-12T21:22:33.901Z,99373.06
2022-11-12T21:25:18.939Z,99359.97
2022-11-12T21:28:04.913Z,99358.50
2022-11-12T21:30:49.936Z,99365.09
2022-11-12T21:33:35.512Z,99360.72
2022-11-12T21:36:21.910Z,99348.47
2022-11-12T21:39:08.488Z,99354.28
2022-11-12T21:41:54.810Z,99348.22
2022-11-12T21:44:39.668Z,99348.22
2022-11-12T21:47:24.588Z,99351.47
2022-11-12T21:50:09.758Z,99354.25
2022-11-12T21:52:56.185Z,99357.78
2022-11-12T21:55:41.258Z,99346.84
2022-11-12T21:58:28.746Z,99350.41
2022-11-12T22:01:17.843Z,99350.59
2022-11-12T22:04:07.357Z,99361.63
2022-11-12T22:06:52.620Z,99348.88
2022-11-12T22:09:37.697Z,99347.28
2022-11-12T22:12:22.607Z,99340.88
2022-11-12T22:15:08.232Z,99324.44
2022-11-12T22:17:53.065Z,99334.19
2022-11-12T22:20:38.120Z,99338.66
2022-11-12T22:23:23.102Z,99335.75
2022-11-12T22:26:11.999Z,99334.25
2022-11-12T22:28:58.504Z,99327.59
2022-11-12T22:31:43.776Z,99323.03
2022-11-12T22:34:28.876Z,99322.31
2022-11-12T22:37:13.757Z,99317.69
2022-11-12T22:39:58.723Z,99316.31
2022-11-12T22:42:43.817Z,99320.81
2022-11-12T22:45:28.574Z,99318.50
2022-11-12T22:48:13.536Z,99309.91
2022-11-12T22:51:03.943Z,99310.59
2022-11-12T22:53:56.628Z,99301.84
2022-11-12T22:56:41.530Z,99305.31
2022-11-12T22:59:26.481Z,99297.06
2022-11-12T23:02:11.404Z,99301.69
2022-11-12T23:04:56.230Z,99299.31
2022-11-12T23:07:41.286Z,99302.25
2022-11-12T23:10:26.401Z,99294.78
2022-11-12T23:13:11.608Z,99289.97
2022-11-12T23:15:56.485Z,99298.41
2022-11-12T23:18:42.403Z,99297.63
2022-11-12T23:21:29.462Z,99294.44
2022-11-12T23:24:14.520Z,99287.66
2022-11-12T23:27:01.102Z,99296.22
2022-11-12T23:29:46.191Z,99288.03
2022-11-12T23:32:31.985Z,99277.31
2022-11-12T23:35:17.361Z,99271.41
2022-11-12T23:38:02.454Z,99272.13
2022-11-12T23:40:56.727Z,99266.00
2022-11-12T23:43:42.508Z,99246.53
2022-11-12T23:46:27.535Z,99254.31
2022-11-12T23:49:12.558Z,99247.34
2022-11-12T23:51:57.619Z,99256.25
2022-11-12T23:54:42.481Z,99256.47
2022-11-12T23:57:27.598Z,99250.47
